Time;durP1;ratioP1;P1;durP2;ratioP2;P2;SDS_P1;SDS_P2;PMS_P1;PMS_P2;Temp;Humidity;BMP_temperature;BMP_pressure;BME280_temperature;BME280_humidity;BME280_pressure;Samples;Min_cycle;Max_cycle;Signal;HPM_P1;HPM_P2
2022/07/08 00:01:22;;;;;;;2.7;3.9;;;;;;;15.7;100;98790;;;;
2022/07/08 00:12:22;;;;;;;3;5.1;;;;;;;15.6;100;98790;;;;
2022/07/08 00:22:22;;;;;;;3;5.1;;;;;;;15.7;100;98800;;;;
2022/07/08 00:32:22;;;;;;;3;5.1;;;;;;;15.6;100;98790;;;;
2022/07/08 00:42:22;;;;;;;3.7;7;;;;;;;15.6;100;98800;;;;
2022/07/08 00:53:22;;;;;;;3.7;7;;;;;;;15.6;100;98790;;;;
2022/07/08 01:04:22;;;;;;;3.7;7;;;;;;;15.7;100;98790;;;;
2022/07/08 01:14:22;;;;;;;3.8;7;;;;;;;15.6;100;98800;;;;
2022/07/08 01:24:22;;;;;;;3.8;7;;;;;;;15.6;100;98800;;;;
2022/07/08 01:34:22;;;;;;;3.8;7;;;;;;;15.7;100;98800;;;;
2022/07/08 01:44:22;;;;;;;4.2;7.5;;;;;;;15.7;100;98800;;;;
2022/07/08 01:55:22;;;;;;;4.2;7.5;;;;;;;15.6;100;98810;;;;
2022/07/08 02:06:22;;;;;;;4.2;7.5;;;;;;;15.6;100;98810;;;;
2022/07/08 02:16:22;;;;;;;5;8.1;;;;;;;15.6;100;98820;;;;
2022/07/08 02:27:22;;;;;;;5;8.1;;;;;;;15.5;100;98840;;;;
2022/07/08 02:37:22;;;;;;;4.6;7.3;;;;;;;15.5;100;98850;;;;
2022/07/08 02:47:22;;;;;;;4.6;7.3;;;;;;;15.5;100;98860;;;;
2022/07/08 02:58:22;;;;;;;4.6;7.3;;;;;;;15.5;100;98870;;;;
2022/07/08 03:09:22;;;;;;;4.6;10.6;;;;;;;15.5;100;98880;;;;
2022/07/08 03:20:22;;;;;;;4.6;10.6;;;;;;;15.6;100;98890;;;;
2022/07/08 03:31:22;;;;;;;4.6;10.6;;;;;;;15.6;100;98900;;;;
2022/07/08 03:41:23;;;;;;;4.9;7.4;;;;;;;15.6;100;98910;;;;
2022/07/08 03:51:23;;;;;;;4.9;7.4;;;;;;;15.6;100;98910;;;;
2022/07/08 04:02:22;;;;;;;4.9;7.4;;;;;;;15.6;100;98920;;;;
2022/07/08 04:13:23;;;;;;;4.5;9;;;;;;;15.8;100;98940;;;;
2022/07/08 04:23:22;;;;;;;4.5;9;;;;;;;16;100;98950;;;;
2022/07/08 04:34:22;;;;;;;4.5;9;;;;;;;16.1;100;98950;;;;
2022/07/08 04:45:23;;;;;;;4.7;7;;;;;;;16.3;100;98960;;;;
2022/07/08 04:56:22;;;;;;;4.7;7;;;;;;;16.5;100;98970;;;;
2022/07/08 05:06:22;;;;;;;4.7;7;;;;;;;16.7;100;98970;;;;
2022/07/08 05:17:22;;;;;;;4.4;7.6;;;;;;;16.9;100;98980;;;;
2022/07/08 05:27:22;;;;;;;4.4;7.6;;;;;;;17;100;98990;;;;
2022/07/08 05:37:22;;;;;;;4.3;7;;;;;;;17.3;100;99000;;;;
2022/07/08 05:48:22;;;;;;;4.3;7;;;;;;;17.7;100;99000;;;;
2022/07/08 05:58:22;;;;;;;4.3;7;;;;;;;17.9;100;99010;;;;
2022/07/08 06:09:22;;;;;;;4.5;10;;;;;;;18.5;100;99020;;;;
2022/07/08 06:19:22;;;;;;;4.5;10;;;;;;;18.5;100;99020;;;;
2022/07/08 06:30:22;;;;;;;4.5;10;;;;;;;18.8;100;99030;;;;
2022/07/08 06:41:22;;;;;;;4.5;9;;;;;;;19.1;100;99040;;;;
2022/07/08 06:51:22;;;;;;;4.5;9;;;;;;;19.1;100;99050;;;;
2022/07/08 07:02:22;;;;;;;4.5;9;;;;;;;19.8;100;99050;;;;
2022/07/08 07:13:22;;;;;;;4.4;8.9;;;;;;;20.4;100;99060;;;;
2022/07/08 07:23:22;;;;;;;4.4;8.9;;;;;;;20.5;100;99060;;;;
2022/07/08 07:33:22;;;;;;;4.4;8.9;;;;;;;20.9;100;99060;;;;
2022/07/08 07:43:22;;;;;;;4.9;7.8;;;;;;;20.9;100;99070;;;;
2022/07/08 07:54:22;;;;;;;4.9;7.8;;;;;;;21;100;99080;;;;
2022/07/08 08:04:22;;;;;;;4.9;7.8;;;;;;;21.5;100;99080;;;;
2022/07/08 08:14:22;;;;;;;4.8;7.7;;;;;;;21.9;100;99080;;;;
2022/07/08 08:25:22;;;;;;;4.8;7.7;;;;;;;22.5;100;99090;;;;
2022/07/08 08:36:23;;;;;;;4.8;7.7;;;;;;;23;100;99090;;;;
2022/07/08 08:47:22;;;;;;;4;7.5;;;;;;;23.2;100;99090;;;;
2022/07/08 08:57:22;;;;;;;4;7.5;;;;;;;23.7;100;99080;;;;
2022/07/08 09:08:22;;;;;;;3.3;6.9;;;;;;;23.7;100;99090;;;;
2022/07/08 09:18:22;;;;;;;3.3;6.9;;;;;;;23.1;100;99080;;;;
2022/07/08 09:28:22;;;;;;;3.3;6.9;;;;;;;24.3;100;99080;;;;
2022/07/08 09:38:22;;;;;;;3.6;7.4;;;;;;;23.3;100;99090;;;;
2022/07/08 09:49:22;;;;;;;3.6;7.4;;;;;;;22.7;100;99080;;;;
2022/07/08 09:59:22;;;;;;;3.6;7.4;;;;;;;23.3;100;99070;;;;
2022/07/08 10:10:22;;;;;;;3.9;7.5;;;;;;;24.2;100;99080;;;;
2022/07/08 10:21:22;;;;;;;3.9;7.5;;;;;;;23.8;100;99090;;;;
2022/07/08 10:32:22;;;;;;;3.9;7.5;;;;;;;20.9;100;99090;;;;
2022/07/08 10:43:22;;;;;;;3;7.9;;;;;;;20.3;100;99080;;;;
2022/07/08 10:54:22;;;;;;;3;7.9;;;;;;;20.6;100;99070;;;;
2022/07/08 11:04:22;;;;;;;3;7.9;;;;;;;21.5;100;99070;;;;
2022/07/08 11:14:22;;;;;;;2.9;5.8;;;;;;;22.9;100;99080;;;;
2022/07/08 11:24:22;;;;;;;2.9;5.8;;;;;;;23.3;100;99070;;;;
2022/07/08 11:35:22;;;;;;;2.9;5.8;;;;;;;23.5;100;99060;;;;
2022/07/08 11:45:22;;;;;;;1.9;5.8;;;;;;;23.1;100;99060;;;;
2022/07/08 11:55:22;;;;;;;1.9;5.8;;;;;;;23.6;100;99040;;;;
2022/07/08 12:05:22;;;;;;;1.9;5.8;;;;;;;23;100;99060;;;;
2022/07/08 12:15:22;;;;;;;2.5;4.8;;;;;;;20.8;100;99090;;;;
2022/07/08 12:25:22;;;;;;;2.5;4.8;;;;;;;19.2;100;99120;;;;
2022/07/08 12:36:23;;;;;;;2.5;4.8;;;;;;;18.6;100;99120;;;;
2022/07/08 12:46:22;;;;;;;4.7;7.6;;;;;;;18.4;100;99110;;;;
2022/07/08 12:57:22;;;;;;;4.7;7.6;;;;;;;18.5;100;99110;;;;
2022/07/08 13:08:22;;;;;;;5.8;9.4;;;;;;;19.2;100;99100;;;;
2022/07/08 13:18:22;;;;;;;5.8;9.4;;;;;;;20.1;100;99100;;;;
2022/07/08 13:29:22;;;;;;;5.8;9.4;;;;;;;20.9;100;99090;;;;
2022/07/08 13:39:22;;;;;;;4.3;7.4;;;;;;;21.6;100;99090;;;;
2022/07/08 13:50:22;;;;;;;4.3;7.4;;;;;;;21.9;100;99070;;;;
2022/07/08 14:01:22;;;;;;;4.3;7.4;;;;;;;21.2;100;99100;;;;
2022/07/08 14:12:22;;;;;;;2.2;5.5;;;;;;;17.3;100;99120;;;;
2022/07/08 14:22:22;;;;;;;2.2;5.5;;;;;;;16.3;100;99120;;;;
2022/07/08 14:32:22;;;;;;;2.2;5.5;;;;;;;16.4;100;99130;;;;
2022/07/08 14:43:22;;;;;;;3.1;5.4;;;;;;;16.3;100;99120;;;;
2022/07/08 14:54:22;;;;;;;3.1;5.4;;;;;;;16.4;100;99100;;;;
2022/07/08 15:04:22;;;;;;;3.1;5.4;;;;;;;16.7;100;99110;;;;
2022/07/08 15:14:22;;;;;;;4.4;7.7;;;;;;;16.5;100;99140;;;;
2022/07/08 15:24:22;;;;;;;4.4;7.7;;;;;;;16.2;100;99160;;;;
2022/07/08 15:34:22;;;;;;;4.4;7.7;;;;;;;16.2;100;99150;;;;
2022/07/08 15:44:22;;;;;;;4.5;8.2;;;;;;;15.9;100;99140;;;;
2022/07/08 15:55:22;;;;;;;4.5;8.2;;;;;;;15.9;100;99150;;;;
2022/07/08 16:05:22;;;;;;;4.5;8.2;;;;;;;16.5;100;99140;;;;
2022/07/08 16:16:22;;;;;;;4.9;8.9;;;;;;;16.7;100;99150;;;;
2022/07/08 16:27:22;;;;;;;4.9;8.9;;;;;;;16.6;100;99150;;;;
2022/07/08 16:38:22;;;;;;;3.7;6.7;;;;;;;17.4;100;99160;;;;
2022/07/08 16:49:22;;;;;;;3.7;6.7;;;;;;;17.5;100;99160;;;;
2022/07/08 16:59:22;;;;;;;3.7;6.7;;;;;;;17.5;100;99160;;;;
2022/07/08 17:10:22;;;;;;;3.5;5.5;;;;;;;17.1;100;99160;;;;
2022/07/08 17:20:22;;;;;;;3.5;5.5;;;;;;;16.9;100;99140;;;;
2022/07/08 17:31:22;;;;;;;3.5;5.5;;;;;;;16.7;100;99150;;;;
2022/07/08 17:42:22;;;;;;;3.6;5.7;;;;;;;16.4;100;99140;;;;
2022/07/08 17:53:22;;;;;;;3.6;5.7;;;;;;;16.2;100;99140;;;;
2022/07/08 18:04:22;;;;;;;3.6;5.7;;;;;;;16.9;100;99160;;;;
2022/07/08 18:15:22;;;;;;;3.2;5.5;;;;;;;16.4;100;99160;;;;
2022/07/08 18:26:22;;;;;;;3.2;5.5;;;;;;;16.2;100;99160;;;;
2022/07/08 18:36:22;;;;;;;3.2;5.5;;;;;;;15.8;100;99160;;;;
2022/07/08 18:47:22;;;;;;;5.5;10.5;;;;;;;15.7;100;99160;;;;
2022/07/08 18:57:22;;;;;;;5.5;10.5;;;;;;;15.4;100;99170;;;;
2022/07/08 19:08:22;;;;;;;3.3;5.9;;;;;;;15.4;100;99190;;;;
2022/07/08 19:18:22;;;;;;;3.3;5.9;;;;;;;15.5;100;99200;;;;
2022/07/08 19:28:22;;;;;;;3.3;5.9;;;;;;;15.5;100;99210;;;;
2022/07/08 19:38:22;;;;;;;3.5;6.6;;;;;;;15;100;99250;;;;
2022/07/08 19:49:22;;;;;;;3.5;6.6;;;;;;;14.8;100;99230;;;;
2022/07/08 20:00:22;;;;;;;3.5;6.6;;;;;;;14.8;100;99240;;;;
2022/07/08 20:10:22;;;;;;;6.9;12.6;;;;;;;14.9;100;99240;;;;
2022/07/08 20:20:22;;;;;;;6.9;12.6;;;;;;;15;100;99250;;;;
2022/07/08 20:30:22;;;;;;;6.9;12.6;;;;;;;14.9;100;99250;;;;
2022/07/08 20:40:22;;;;;;;7.3;12.1;;;;;;;14.9;100;99250;;;;
2022/07/08 20:50:22;;;;;;;7.3;12.1;;;;;;;15;100;99250;;;;
2022/07/08 21:01:22;;;;;;;7.3;12.1;;;;;;;14.9;100;99250;;;;
2022/07/08 21:12:22;;;;;;;5.7;8.5;;;;;;;15;100;99240;;;;
2022/07/08 21:23:22;;;;;;;5.7;8.5;;;;;;;15;100;99250;;;;
2022/07/08 21:33:22;;;;;;;5.7;8.5;;;;;;;15;100;99250;;;;
2022/07/08 21:43:22;;;;;;;7.7;12.6;;;;;;;15;100;99250;;;;
2022/07/08 21:54:22;;;;;;;7.7;12.6;;;;;;;15;100;99260;;;;
2022/07/08 22:05:22;;;;;;;7.7;12.6;;;;;;;14.9;100;99250;;;;
2022/07/08 22:15:22;;;;;;;6.9;13;;;;;;;14.8;100;99250;;;;
2022/07/08 22:26:22;;;;;;;6.9;13;;;;;;;14.6;100;99250;;;;
2022/07/08 22:36:24;;;;;;;6.9;13;;;;;;;14.5;100;99260;;;;
2022/07/08 22:47:22;;;;;;;6.7;11.5;;;;;;;14.5;100;99260;;;;
2022/07/08 22:57:22;;;;;;;6.7;11.5;;;;;;;14.4;100;99260;;;;
2022/07/08 23:08:22;;;;;;;6.7;13.6;;;;;;;14.5;100;99260;;;;
2022/07/08 23:18:22;;;;;;;6.7;13.6;;;;;;;14.5;100;99260;;;;
2022/07/08 23:29:22;;;;;;;6.7;13.6;;;;;;;14.5;100;99270;;;;
2022/07/08 23:39:22;;;;;;;5;10.3;;;;;;;14.5;100;99260;;;;
2022/07/08 23:50:22;;;;;;;5;10.3;;;;;;;14.6;100;99270;;;;
